Regionale Übersicht

METAR et TAF

Jeudi 24 octobre 2019 à 01h45

Visibilités horizontales observées à différents aéroports. Les observations (METAR) et prévisions aéronautiques (TAF) complètes sont disponibles en cliquant sur l’icône correspondante.

  • Luxemburg (ELLX)

    Taf: TAF ELLX 232300Z 2400/2506 10004KT 3000 BR SCT004 TEMPO 2400/2409 VRB03KT 0200 FG BKN001 BECMG 2406/2408 20008KT BECMG 2500/2506 3000 BR BKN004=

    Metar: METAR COR ELLX 232320Z 20004KT 170V240 3000 BR BKN007 11/10 Q1010 NOSIG=

  • Spangdahlem (ETAD)

    Taf: TAF ETAD 232000Z 2320/2502 07009KT 9000 BR FEW007 QNH2981INS BECMG 2321/2322 09005KT 8000 BR OVC005 QNH2979INS BECMG 2405/2406 19015KT 1600 BR OVC002 QNH2979INS TEMPO 2406/2409 0400 FG VV002 BECMG 2408/2409 20006KT 5000 BR BKN008 QNH2983INS BECMG 2410/2411 21006KT 9999 NSW BKN020 OVC040 QNH2982INS BECMG 2423/2424 23006KT 8000 BR OVC010 QNH2996INS TX14/2414Z TN09/2403Z LAST NO AMDS AFT 2320 NEXT 2404=

    Metar: nil

  • Metz/Nancy (LFJL)

    Taf: TAF LFJL 232300Z 2400/2424 11005KT 3000 BR OVC004 TEMPO 2400/2408 0500 FG VV/// PROB40 TEMPO 2405/2408 0300 -RADZ BECMG 2410/2412 21012KT 9999 NSW SCT030=

    Metar: nil

  • Saarbrücken/Intl (EDDR)

    Taf: TAF EDDR 232300Z 2400/2424 08004KT 9999 FEW012 TEMPO 2400/2410 3000 BR BKN005 PROB30 TEMPO 2402/2408 0500 FG BKN001 BECMG 2402/2405 19005KT BECMG 2410/2412 21010KT PROB30 TEMPO 2422/2424 BKN014=

    Metar: nil

  • Hahn (EDFH)

    Taf: TAF EDFH 232300Z NIL=

    Metar: nil

  • Ramstein (ETAR)

    Taf: TAF ETAR 231800Z 2318/2424 07006KT 9999 OVC012 QNH2979INS BECMG 2406/2407 VRB06KT 9999 OVC008 QNH2982INS TEMPO 2407/2410 OVC005 BECMG 2411/2412 24006KT 9999 FEW012 BKN060 QNH2984INS TX18/2414Z TN09/2402Z=

    Metar: nil

  • Nancy/Ochey (LFSO)

    Taf: TAF LFSO 232000Z NIL=

    Metar: nil

  • Liège Bierset (EBLG)

    Taf: TAF EBLG 232310Z 2400/2506 14005KT CAVOK BECMG 2411/2413 20011KT=

    Metar: nil

  • Saint-Dizier (LFSI)

    Taf: TAF LFSI 232000Z 2321/2421 10005KT 8000 NSC BECMG 2410/2412 20010G25KT TEMPO 2417/2421 SHRA BKN025TCU BKN040=

    Metar: nil

  • Maastricht/Zuid Limburg (EHBK)

    Taf: TAF COR EHBK 232243Z 2400/2506 16005KT 6000 NSC BECMG 2407/2410 21013KT CAVOK PROB30 TEMPO 2420/2502 6000 -RA -SHRA FEW015TCU BKN020=

    Metar: nil

  • Köln/Köln-Bonn (EDDK)

    Taf: TAF EDDK 232300Z 2400/2506 12006KT 9999 FEW040 BECMG 2408/2411 18008KT=

    Metar: METAR EDDK 232320Z 10004KT 9999 FEW016 12/11 Q1009 NOSIG=

  • Charleroi (EBCI)

    Taf: TAF EBCI 232310Z 2400/2506 15006KT CAVOK BECMG 2410/2412 21011KT=

    Metar: nil

  • Wiesbaden (ETOU)

    Taf: TAF AMD ETOU 2323/2503 VRB06KT 9999 FEW010 QNH2976INS BECMG 2406/2407 VRB06KT 6000 BR BKN010 QNH2977INS BECMG 2407/2408 VRB06KT 9999 NSW BKN015 BKN090 QNH2978INS BECMG 2412/2413 19009KT 9999 FEW020 SCT070 QNH2986INS TX15/2413Z TN08/2405Z=

    Metar: nil

  • Karlsruhe/Baden-Baden (EDSB)

    Taf: TAF EDSB 232300Z NIL=

    Metar: nil

  • Chalons/Vatry (LFOK)

    Taf: TAF LFOK 232300Z 2400/2424 10008KT 8000 NSC PROB30 TEMPO 2400/2404 0300 FG VV/// BECMG 2404/2407 16010KT BECMG 2410/2412 22012KT TEMPO 2412/2415 22015G25KT BECMG 2419/2422 BKN008=

    Metar: nil

  • Frankfurt/Main (EDDF)

    Taf: TAF EDDF 232300Z 2400/2506 04005KT 9999 FEW015 TEMPO 2402/2411 2500 BR BKN010 BECMG 2404/2407 19005KT PROB30 TEMPO 2404/2408 0500 FG BKN002 PROB30 TEMPO 2418/2506 3000 BR TEMPO 2420/2506 BKN025=

    Metar: METAR EDDF 232320Z 08005KT CAVOK 12/11 Q1010 NOSIG=

  • Brüssel (EBBR)

    Taf: TAF EBBR 232310Z 2400/2506 14004KT CAVOK BECMG 2410/2412 20011KT=

    Metar: METAR EBBR 232320Z 17004KT CAVOK 13/12 Q1008 NOSIG=

  • Düsseldorf (EDDL)

    Taf: TAF EDDL 232300Z 2400/2506 15009KT CAVOK BECMG 2410/2413 21011KT=

    Metar: nil

  • Luxeuil (LFSX)

    Taf: TAF LFSX 232000Z NIL=

    Metar: nil

  • Eindhoven (EHEH)

    Taf: TAF EHEH 231701Z 2318/2424 08005KT CAVOK BECMG 2318/2321 15005KT 2000 BR PROB30 TEMPO 2323/2406 0800 BCFG PROB30 TEMPO 2305/2309 SCT005 BECMG 2406/2409 18010G20KT 9999 NSW TEMPO 2412/2424 19012G23KT TEMPO 2418/2424 SCT018 BKN022=

    Metar: nil

  • Niederrhein (EDLV)

    Taf: TAF EDLV 232300Z NIL=

    Metar: nil

  • Dortmund/Wickede (EDLW)

    Taf: TAF EDLW 232300Z NIL=

    Metar: nil

  • Stuttgart/Echterdingen (EDDS)

    Taf: TAF EDDS 232300Z 2400/2424 VRB02KT CAVOK TEMPO 2400/2409 2000 BCFG PROB30 TEMPO 2402/2408 0300 FG VV000=

    Metar: METAR EDDS 232320Z 27003KT CAVOK 09/09 Q1010=

  • Basel-Mühlhausen (LFSB)

    Taf: TAF LFSB 232300Z 2400/2424 17003KT 6000 FEW005 BKN110 PROB40 TEMPO 2400/2405 3000 BCFG BECMG 2406/2409 26008KT 9999 PROB40 TEMPO 2413/2418 FEW040TCU=

    Metar: METAR LFSB 232330Z AUTO 17006KT 6000 NCD 12/12 Q1011 TEMPO 3000 BCFG=

  • Lille (LFQQ)

    Taf: TAF LFQQ 232300Z 2400/2506 15008KT 8000 NSC TEMPO 2400/2405 4000 BR TEMPO 2405/2412 BKN008 FM241200 20012KT 9999 BKN018 TEMPO 2413/2418 20017G27KT 3000 SHRA BKN013TCU BECMG 2503/2505 OVC005=

    Metar: nil

  • Paris/Charles de Gaulle (LFPG)

    Taf: TAF LFPG 232300Z 2400/2506 14006KT 7000 NSC TX16/2412Z TN10/2504Z PROB30 TEMPO 2400/2406 4000 BR BECMG 2406/2408 19012KT PROB40 TEMPO 2408/2411 BKN012 TEMPO 2409/2417 20015G30KT PROB30 TEMPO 2413/2415 3000 SHRA SCT016TCU BECMG 2422/2424 BKN008 BECMG 2501/2503 3000 BR PROB40 TEMPO 2504/2506 0600 FG BKN001=

    Metar: nil

  • Paderborn/Lippstadt (EDLP)

    Taf: TAF EDLP 232300Z 2400/2424 14008KT CAVOK BECMG 2406/2409 22007KT BECMG 2419/2422 22012KT=

    Metar: nil

  • Paris/Le Bourget (LFPB)

    Taf: TAF LFPB 232300Z 2400/2424 14006KT 7000 NSC PROB30 TEMPO 2400/2406 4000 BR BECMG 2406/2408 19012KT PROB40 TEMPO 2408/2411 BKN013 TEMPO 2409/2417 20015G30KT PROB30 TEMPO 2413/2415 3000 SHRA SCT018TCU BECMG 2422/2424 BKN010=

    Metar: METAR LFPB 232330Z AUTO VRB03KT 7000 NSC 13/12 Q1007 TEMPO 2000 BR=

  • Rotterdam (EHRD)

    Taf: TAF EHRD 232239Z 2400/2506 15005KT 4000 BR NSC PROB40 2401/2408 2000 BECMG 2407/2410 19010KT CAVOK BECMG 2412/2415 20013KT BECMG 2419/2422 25010KT PROB30 TEMPO 2419/2424 7000 -RA -SHRA SCT015TCU BKN018 BECMG 2503/2506 22009KT=

    Metar: nil

  • Zürich/Kloten (LSZH)

    Taf: TAF LSZH 232325Z 2400/2506 VRB03KT 8000 NSC TX17/2415Z TN10/2404Z TN06/2504Z PROB30 2400/2407 3500 BR BKN004 BECMG 2413/2416 BKN070=

    Metar: METAR LSZH 232320Z 34006KT 9000 NSC 11/10 Q1011 NOSIG=

  • Oostende/Intl (EBOS)

    Taf: TAF EBOS 232310Z 2400/2506 18006KT 3000 BR NSC PROB30 TEMPO 2400/2406 6000 NSW BECMG 2406/2408 9000 NSW BECMG 2416/2418 26011KT=

    Metar: nil

  • Paris/Orly (LFPO)

    Taf: TAF LFPO 232300Z 2400/2506 12004KT 8000 NSC PROB30 TEMPO 2400/2406 3500 BR BECMG 2406/2409 19010KT 9999 BKN020 TEMPO 2414/2420 20010G22KT -RA BECMG 2418/2421 22005KT CAVOK TEMPO 2502/2506 4000 BR PROB30 TEMPO 2504/2506 BKN004=

    Metar: nil

  • Beauvais (LFOB)

    Taf: TAF LFOB 232300Z 2400/2424 VRB03KT 1200 BR BKN002 PROB40 TEMPO 2400/2405 0300 FG VV/// BECMG 2405/2408 18010KT 8000 NSW BKN005 BECMG 2408/2411 OVC013 PROB40 TEMPO 2411/2417 24017G27KT 3000 RA BKN005 BKN030TCU FM241700 24010KT 9999 BKN025 BECMG 2421/2424 BKN005=

    Metar: nil

  • Münster/Intl (EDDG)

    Taf: TAF EDDG 232300Z 2400/2424 VRB03KT 6000 NSC BECMG 2400/2403 3500 BR TEMPO 2400/2408 2000 BCFG PROB30 TEMPO 2400/2408 0500 FG BKN005 BECMG 2407/2410 20007KT 6000=

    Metar: METAR EDDG 232320Z 12004KT 050V210 5000 BR NSC 12/11 Q1008 BECMG 4000=

  • Illesheim (ETIK)

    Taf: TAF ETIK 2322/2504 12009KT 9000 BR FEW008 QNH2979INS BECMG 2400/2401 VRB06KT 3200 BR SCT008 QNH2976INS BECMG 2410/2411 VRB06KT 6000 BR SCT010 QNH2979INS BECMG 2416/2417 VRB06KT 9999 NSW SCT010 OVC100 QNH2979INS TX18/2413Z TN10/2406Z=

    Metar: nil

  • Duebendorf (LSMD)

    Taf: TAF LSMD 231625Z 2317/2423 VRB03KT 8000 NSC PROB40 2321/2406 4000 BR BECMG 2404/2408 9999 SCT090=

    Metar: nil

  • Villacoublay (LFPV)

    Taf: TAF LFPV 232000Z 2321/2421 12008KT 3000 BR NSC PROB30 TEMPO 2322/2404 1400 BR BKN003 BECMG 2404/2406 19010KT 9999 NSW BKN010 TEMPO 2406/2409 4000 -RA BKN005 BECMG 2409/2410 19012G22KT BKN015 TEMPO 2410/2419 -SHRA BKN020TCU BECMG 2419/2420 24008KT=

    Metar: nil

  • Payerne (LSMP)

    Taf: TAF LSMP 231625Z 2317/2423 VRB03KT CAVOK BECMG 2406/2409 8000 SCT015 BKN025=

    Metar: nil

  • Amsterdam/Schipol (EHAM)

    Taf: TAF EHAM 232239Z 2400/2506 14005KT 6000 NSC PROB40 2401/2408 2000 BR BECMG 2407/2410 19008KT CAVOK BECMG 2412/2415 20013KT BECMG 2420/2423 24010KT PROB30 TEMPO 2420/2501 7000 -RA -SHRA SCT015TCU BKN018 BECMG 2503/2506 21009KT=

    Metar: METAR EHAM 232325Z 15003KT 6000 NSC 12/11 Q1007 NOSIG=

  • Emmen (LSME)

    Taf: TAF LSME 231625Z 2317/2423 VRB03KT 7000 NSC PROB40 2321/2406 4000 BR BECMG 2404/2408 9999 SCT090=

    Metar: nil

  • Friedrichshafen (EDNY)

    Taf: TAF EDNY 232300Z 2400/2424 04006KT CAVOK BECMG 2400/2402 VRB03KT TEMPO 2402/2408 2000 BCFG PROB30 TEMPO 2403/2407 0600 FG VV002 BECMG 2412/2414 24005KT=

    Metar: nil

  • Alpnach (LSMA)

    Taf: TAF LSMA 231625Z 2317/2423 VRB03KT CAVOK PROB30 2321/2406 4000 BR BECMG 2404/2408 9999 SCT090=

    Metar: nil

  • Meiringen (LSMM)

    Taf: TAF LSMM 231625Z 2317/2423 27008KT CAVOK TEMPO 2317/2403 10020G40KT BECMG 2400/2403 9999 BKN090 PROB40 TEMPO 2403/2418 RA=

    Metar: nil

  • Nürnberg (EDDN)

    Taf: TAF EDDN 232300Z 2400/2424 10005KT CAVOK TEMPO 2400/2408 2000 BCFG BECMG 2410/2412 27004KT=

    Metar: METAR EDDN 232320Z 10003KT 2700 R28/0600V0900N BR NSC 09/09 Q1012=

  • Rouen (LFOP)

    Taf: TAF LFOP 232300Z NIL=

    Metar: nil

  • Evreux (LFOE)

    Taf: TAF LFOE 232016Z 2320/2415 CNL=

    Metar: nil

  • Erfurt/Bindersleben (EDDE)

    Taf: TAF EDDE 232300Z 2400/2424 05004KT 0050 FG BKN000 PROB30 TEMPO 2400/2406 0600 FG BKN001 BECMG 2406/2409 22005KT 8000 NSC=

    Metar: nil